Time;durP1;ratioP1;P1;durP2;ratioP2;P2;SDS_P1;SDS_P2;PMS_P1;PMS_P2;Temp;Humidity;BMP_temperature;BMP_pressure;BME280_temperature;BME280_humidity;BME280_pressure;Samples;Min_cycle;Max_cycle;Signal;HPM_P1;HPM_P2
2022/06/17 00:00:43;;;;;;;4.07;3.77;;;21.10;59.60;;;;;;5156432;27;20544;-68
2022/06/17 00:03:10;;;;;;;5.13;4.10;;;21.00;59.70;;;;;;5155750;27;20989;-68
2022/06/17 00:05:37;;;;;;;4.33;4.03;;;21.00;60.40;;;;;;5156234;27;20531;-68
2022/06/17 00:08:06;;;;;;;4.33;3.90;;;20.90;60.30;;;;;;5155874;27;20968;-68
2022/06/17 00:10:33;;;;;;;4.03;3.73;;;20.90;60.80;;;;;;5155866;27;20559;-69
2022/06/17 00:13:00;;;;;;;4.63;4.23;;;20.90;61.10;;;;;;5155315;27;20535;-68
2022/06/17 00:15:26;;;;;;;4.90;4.00;;;20.90;61.20;;;;;;5156235;27;20539;-68
2022/06/17 00:17:53;;;;;;;4.67;4.37;;;20.90;60.20;;;;;;5155614;27;20547;-68
2022/06/17 00:20:24;;;;;;;4.60;4.20;;;20.90;61.30;;;;;;5155777;27;20470;-68
2022/06/17 00:22:51;;;;;;;5.03;4.57;;;20.80;61.30;;;;;;5155824;27;20427;-68
2022/06/17 00:25:26;;;;;;;4.30;4.00;;;20.70;61.50;;;;;;5155735;27;20528;-68
2022/06/17 00:27:56;;;;;;;6.47;4.70;;;20.70;62.40;;;;;;5155626;27;20783;-68
2022/06/17 00:30:30;;;;;;;4.50;4.10;;;20.60;62.30;;;;;;5155545;27;20552;-68
2022/06/17 00:32:59;;;;;;;4.60;4.20;;;20.60;62.50;;;;;;5155433;27;20440;-68
2022/06/17 00:35:31;;;;;;;7.07;4.10;;;20.50;62.40;;;;;;5156090;27;20883;-68
2022/06/17 00:37:58;;;;;;;5.23;4.73;;;20.50;62.50;;;;;;5155135;27;20905;-68
2022/06/17 00:40:29;;;;;;;4.47;4.17;;;20.50;62.40;;;;;;5155516;27;20551;-69
2022/06/17 00:42:57;;;;;;;4.33;4.03;;;20.50;63.30;;;;;;5154986;27;20451;-68
2022/06/17 00:45:27;;;;;;;4.70;4.40;;;20.40;63.40;;;;;;5155716;27;20855;-68
2022/06/17 00:48:00;;;;;;;5.50;4.47;;;20.40;63.40;;;;;;5155233;27;20489;-67
2022/06/17 00:50:33;;;;;;;5.00;4.60;;;20.30;63.40;;;;;;5155023;27;20475;-68
2022/06/17 00:53:17;;;;;;;4.80;4.40;;;20.30;64.50;;;;;;5154793;27;20904;-68
2022/06/17 00:55:50;;;;;;;4.30;4.00;;;20.20;64.60;;;;;;5155591;27;20486;-68
2022/06/17 00:58:21;;;;;;;4.80;4.40;;;20.20;64.30;;;;;;5154872;27;20485;-68
2022/06/17 01:00:52;;;;;;;4.57;4.20;;;20.10;63.90;;;;;;5154771;27;20489;-68
2022/06/17 01:03:23;;;;;;;5.00;4.50;;;20.10;64.50;;;;;;5154861;27;20498;-68
2022/06/17 01:05:52;;;;;;;4.50;4.10;;;20.10;65.00;;;;;;5155217;27;20852;-68
2022/06/17 01:11:20;;;;;;;4.53;4.13;;;20.00;65.00;;;;;;5117263;27;20950;-69
2022/06/17 01:13:51;;;;;;;4.80;4.40;;;20.00;66.10;;;;;;5154383;27;20443;-69
2022/06/17 01:16:22;;;;;;;4.60;4.20;;;19.90;66.40;;;;;;5154696;27;20518;-69
2022/06/17 01:18:51;;;;;;;4.57;4.27;;;19.90;66.80;;;;;;5154654;27;20481;-69
2022/06/17 01:21:26;;;;;;;4.83;4.40;;;19.80;67.80;;;;;;5154657;27;20466;-69
2022/06/17 01:23:55;;;;;;;4.20;3.90;;;19.80;67.10;;;;;;5154768;27;20518;-69
2022/06/17 01:26:22;;;;;;;5.03;4.60;;;19.80;67.30;;;;;;5154727;27;20924;-69
2022/06/17 01:28:49;;;;;;;5.00;4.60;;;19.70;67.60;;;;;;5155281;27;20449;-68
2022/06/17 01:31:17;;;;;;;4.40;4.10;;;19.70;68.20;;;;;;5155426;27;21018;-68
2022/06/17 01:33:45;;;;;;;4.53;4.17;;;19.60;68.30;;;;;;5155521;27;20196;-68
2022/06/17 01:36:16;;;;;;;4.57;4.28;;;19.60;68.30;;;;;;5155496;27;20434;-68
2022/06/17 01:38:47;;;;;;;4.20;3.90;;;19.50;68.60;;;;;;5155319;27;20252;-68
2022/06/17 01:41:16;;;;;;;4.85;4.28;;;19.50;69.10;;;;;;5155576;27;20257;-68
2022/06/17 01:43:48;;;;;;;4.60;4.20;;;19.50;68.80;;;;;;5155388;27;20540;-69
2022/06/17 01:46:19;;;;;;;4.63;4.22;;;19.40;69.90;;;;;;5155592;27;20295;-68
2022/06/17 01:48:52;;;;;;;4.70;4.30;;;19.40;70.00;;;;;;5155391;27;20201;-68
2022/06/17 01:51:22;;;;;;;4.32;4.03;;;19.30;70.20;;;;;;5155515;27;20315;-69
2022/06/17 01:53:53;;;;;;;4.80;4.40;;;19.30;70.60;;;;;;5155081;27;20213;-68
2022/06/17 01:56:24;;;;;;;5.15;4.75;;;19.30;70.90;;;;;;5155347;27;20201;-68
2022/06/17 01:58:58;;;;;;;4.10;3.83;;;19.30;71.80;;;;;;5155214;27;20678;-68
2022/06/17 02:01:28;;;;;;;4.95;4.55;;;19.20;72.00;;;;;;5155301;27;20311;-68
2022/06/17 02:03:59;;;;;;;4.78;4.47;;;19.20;72.00;;;;;;5155251;27;20205;-68
2022/06/17 02:06:33;;;;;;;4.75;4.35;;;19.20;72.00;;;;;;5155393;27;20292;-68
2022/06/17 02:09:00;;;;;;;7.78;5.50;;;19.20;72.90;;;;;;5155471;27;20291;-68
2022/06/17 02:11:29;;;;;;;5.25;4.15;;;19.20;72.60;;;;;;5155125;27;20650;-68
2022/06/17 02:13:55;;;;;;;4.78;4.38;;;19.20;73.20;;;;;;5155082;27;20307;-68
2022/06/17 02:16:23;;;;;;;4.82;4.38;;;19.10;73.50;;;;;;5155154;27;20374;-68
2022/06/17 02:18:50;;;;;;;4.80;4.40;;;19.10;73.40;;;;;;5155000;27;20275;-68
2022/06/17 02:21:22;;;;;;;4.90;4.50;;;19.10;74.40;;;;;;5155082;27;20303;-68
2022/06/17 02:23:49;;;;;;;5.13;4.63;;;19.10;74.00;;;;;;5154997;27;20631;-68
2022/06/17 02:26:17;;;;;;;4.30;4.00;;;19.10;74.20;;;;;;5155236;27;20292;-69
2022/06/17 02:28:47;;;;;;;4.45;4.15;;;19.00;74.50;;;;;;5159565;27;20261;-68
2022/06/17 02:31:15;;;;;;;5.20;4.80;;;19.00;74.30;;;;;;5159366;27;20303;-68
2022/06/17 02:33:48;;;;;;;4.60;4.30;;;19.00;74.50;;;;;;5158920;27;20630;-68
2022/06/17 02:36:19;;;;;;;4.60;4.30;;;19.00;75.00;;;;;;5159071;27;20543;-68
2022/06/17 02:38:46;;;;;;;4.50;4.20;;;18.90;75.20;;;;;;5158880;27;20223;-68
2022/06/17 02:41:17;;;;;;;4.68;4.35;;;18.90;75.20;;;;;;5158951;27;20312;-68
2022/06/17 02:43:48;;;;;;;4.38;4.07;;;18.90;75.30;;;;;;5158609;27;20215;-68
2022/06/17 02:46:20;;;;;;;4.45;4.15;;;18.90;74.70;;;;;;5159152;27;20211;-68
2022/06/17 02:48:53;;;;;;;4.75;4.45;;;18.90;76.00;;;;;;5158736;27;20192;-68
2022/06/17 02:51:21;;;;;;;4.30;4.00;;;18.80;76.50;;;;;;5158660;27;20306;-68
2022/06/17 02:53:48;;;;;;;4.63;4.22;;;18.80;77.20;;;;;;5158262;27;20577;-68
2022/06/17 02:56:17;;;;;;;5.28;4.88;;;18.90;77.00;;;;;;5158594;27;20306;-68
2022/06/17 02:59:03;;;;;;;4.97;4.57;;;18.80;76.60;;;;;;5158550;27;20307;-68
2022/06/17 03:01:32;;;;;;;5.10;4.70;;;18.70;77.10;;;;;;5158333;27;20219;-68
2022/06/17 03:04:00;;;;;;;4.72;4.43;;;18.70;77.40;;;;;;5158081;27;20296;-68
2022/06/17 03:06:33;;;;;;;4.53;4.22;;;18.70;77.40;;;;;;5158433;27;20236;-68
2022/06/17 03:09:02;;;;;;;5.00;4.60;;;18.60;77.50;;;;;;5158273;27;20740;-68
2022/06/17 03:11:29;;;;;;;4.20;3.90;;;18.70;77.70;;;;;;5158090;27;20306;-68
2022/06/17 03:14:04;;;;;;;4.85;4.40;;;18.60;77.50;;;;;;5158167;27;20290;-68
2022/06/17 03:16:33;;;;;;;4.90;4.60;;;18.60;78.40;;;;;;5158286;27;20200;-68
2022/06/17 03:19:00;;;;;;;7.50;4.78;;;18.60;80.30;;;;;;5158114;27;20311;-68
2022/06/17 03:21:27;;;;;;;4.60;4.20;;;18.50;80.00;;;;;;5158169;27;20666;-68
2022/06/17 03:24:02;;;;;;;4.45;4.15;;;18.60;79.60;;;;;;5157809;27;20291;-68
2022/06/17 03:26:32;;;;;;;5.07;4.60;;;18.60;79.40;;;;;;5158057;27;20204;-68
2022/06/17 03:29:03;;;;;;;4.65;4.25;;;18.50;80.00;;;;;;5157763;27;20741;-68
2022/06/17 03:31:35;;;;;;;5.03;4.63;;;18.50;79.90;;;;;;5157643;27;20567;-68
2022/06/17 03:34:06;;;;;;;4.80;4.43;;;18.50;80.90;;;;;;5157645;27;20291;-68
2022/06/17 03:36:37;;;;;;;4.63;4.28;;;18.50;80.80;;;;;;5157931;27;20598;-68
2022/06/17 03:39:08;;;;;;;4.47;4.13;;;18.50;81.50;;;;;;5156979;27;20227;-68
2022/06/17 03:41:42;;;;;;;5.13;4.70;;;18.40;82.30;;;;;;5157486;27;20310;-68
2022/06/17 03:44:15;;;;;;;4.93;4.55;;;18.40;82.60;;;;;;5157607;27;20207;-68
2022/06/17 03:46:46;;;;;;;4.90;4.53;;;18.30;82.70;;;;;;5157752;27;20227;-68
2022/06/17 03:49:18;;;;;;;4.72;4.32;;;18.30;82.90;;;;;;5157689;27;20284;-68
2022/06/17 03:51:45;;;;;;;7.07;4.90;;;18.40;84.20;;;;;;5157719;27;20319;-68
2022/06/17 03:54:14;;;;;;;5.05;4.65;;;18.30;85.20;;;;;;5157092;27;20210;-68
2022/06/17 03:56:43;;;;;;;4.60;4.25;;;18.40;86.10;;;;;;5157447;27;20292;-68
2022/06/17 03:59:17;;;;;;;5.70;5.20;;;18.30;85.80;;;;;;5157497;27;20306;-68
2022/06/17 04:01:46;;;;;;;5.20;4.80;;;18.30;86.90;;;;;;5157331;27;20231;-68
2022/06/17 04:04:17;;;;;;;5.07;4.70;;;18.30;87.70;;;;;;5157138;27;20227;-68
2022/06/17 04:06:46;;;;;;;5.13;4.68;;;18.30;87.00;;;;;;5157297;27;20200;-68
2022/06/17 04:09:17;;;;;;;5.20;4.60;;;18.30;88.40;;;;;;5157195;27;20623;-69
2022/06/17 04:11:46;;;;;;;7.28;4.63;;;18.30;89.00;;;;;;5157203;27;20259;-68
2022/06/17 04:14:21;;;;;;;5.20;4.80;;;18.30;89.80;;;;;;5156861;27;20243;-68
2022/06/17 04:16:54;;;;;;;5.85;5.30;;;18.30;90.40;;;;;;5156776;27;20206;-68
2022/06/17 04:19:27;;;;;;;4.78;4.40;;;18.40;90.60;;;;;;5156966;27;20262;-68
2022/06/17 04:21:59;;;;;;;4.82;4.43;;;18.40;90.50;;;;;;5157023;27;20216;-68
2022/06/17 04:24:29;;;;;;;5.05;4.65;;;18.40;90.40;;;;;;5156804;27;20294;-68
2022/06/17 04:27:00;;;;;;;5.15;4.75;;;18.30;91.40;;;;;;5156823;27;20294;-67
2022/06/17 04:29:34;;;;;;;5.57;5.07;;;18.40;91.50;;;;;;5156826;27;20204;-68
2022/06/17 04:32:05;;;;;;;5.18;4.78;;;18.40;91.10;;;;;;5156812;27;20227;-68
2022/06/17 04:34:32;;;;;;;4.80;4.30;;;18.40;90.60;;;;;;5156751;27;20295;-68
2022/06/17 04:37:03;;;;;;;4.35;4.05;;;18.40;90.40;;;;;;5156636;27;20233;-67
2022/06/17 04:39:33;;;;;;;4.68;4.28;;;18.40;90.70;;;;;;5156467;27;20693;-68
2022/06/17 04:42:03;;;;;;;4.90;4.45;;;18.40;91.30;;;;;;5156557;27;20306;-68
2022/06/17 04:44:31;;;;;;;4.95;4.57;;;18.40;91.00;;;;;;5156607;27;20283;-68
2022/06/17 04:47:03;;;;;;;5.07;4.68;;;18.40;91.10;;;;;;5157205;27;20287;-67
2022/06/17 04:49:34;;;;;;;4.47;4.15;;;18.50;91.30;;;;;;5155547;27;20670;-68
2022/06/17 04:52:03;;;;;;;5.30;4.80;;;18.50;91.10;;;;;;5156324;27;20322;-68
2022/06/17 04:54:31;;;;;;;4.78;4.38;;;18.50;90.50;;;;;;5155850;27;20700;-67
2022/06/17 04:57:02;;;;;;;4.70;4.30;;;18.50;90.60;;;;;;5156072;27;20211;-68
2022/06/17 04:59:35;;;;;;;6.20;4.40;;;18.50;90.60;;;;;;5156004;27;20760;-67
2022/06/17 05:02:04;;;;;;;4.97;4.65;;;18.50;91.10;;;;;;5155870;27;20303;-67
2022/06/17 05:04:31;;;;;;;4.57;4.18;;;18.50;91.10;;;;;;5156041;27;20296;-68
2022/06/17 05:06:58;;;;;;;6.35;5.82;;;18.60;90.60;;;;;;5155904;27;20295;-68
2022/06/17 05:09:30;;;;;;;4.72;4.18;;;18.60;90.30;;;;;;5155998;27;20304;-68
2022/06/17 05:12:02;;;;;;;5.20;4.80;;;18.60;89.60;;;;;;5156400;27;20310;-68
2022/06/17 05:14:41;;;;;;;5.82;4.50;;;18.60;89.00;;;;;;5155793;27;20236;-68
2022/06/17 05:17:08;;;;;;;5.00;4.60;;;18.70;89.00;;;;;;5155936;27;20287;-68
2022/06/17 05:19:35;;;;;;;5.30;4.80;;;18.80;88.90;;;;;;5155878;27;20311;-68
2022/06/17 05:22:03;;;;;;;4.60;4.30;;;18.80;88.30;;;;;;5155899;27;20217;-68
2022/06/17 05:24:31;;;;;;;4.97;4.60;;;18.80;88.40;;;;;;5155513;27;20205;-68
2022/06/17 05:26:58;;;;;;;4.18;3.88;;;18.80;88.00;;;;;;5155768;27;20533;-68
2022/06/17 05:29:25;;;;;;;4.75;4.40;;;18.80;89.00;;;;;;5155717;27;20198;-68
2022/06/17 05:31:54;;;;;;;4.40;4.10;;;18.90;88.90;;;;;;5155420;27;20225;-68
2022/06/17 05:34:21;;;;;;;4.25;3.95;;;18.80;89.60;;;;;;5155492;27;20292;-67
2022/06/17 05:36:48;;;;;;;5.40;4.55;;;18.80;89.50;;;;;;5155611;27;20361;-68
2022/06/17 05:39:15;;;;;;;5.38;4.88;;;18.70;89.80;;;;;;5155812;27;20216;-67
2022/06/17 05:41:42;;;;;;;4.95;4.55;;;18.70;89.80;;;;;;5155264;27;20793;-68
2022/06/17 05:44:09;;;;;;;5.30;4.80;;;18.80;90.60;;;;;;5155438;27;20295;-68
2022/06/17 05:46:36;;;;;;;4.70;4.30;;;18.70;91.10;;;;;;5155525;27;20296;-68
2022/06/17 05:49:04;;;;;;;5.82;4.72;;;18.60;90.60;;;;;;5155583;27;20208;-67
2022/06/17 05:51:31;;;;;;;6.13;4.95;;;18.60;90.20;;;;;;5155114;27;20247;-68
2022/06/17 05:53:58;;;;;;;5.18;4.72;;;18.60;88.70;;;;;;5154834;27;20219;-67
2022/06/17 05:56:25;;;;;;;4.85;4.45;;;18.60;89.20;;;;;;5155901;27;20599;-67
2022/06/17 05:58:52;;;;;;;5.20;4.80;;;18.60;90.20;;;;;;5155230;27;20310;-68
2022/06/17 06:01:19;;;;;;;5.53;5.13;;;18.60;90.10;;;;;;5158800;27;20311;-67
2022/06/17 06:03:46;;;;;;;5.78;5.28;;;18.60;90.40;;;;;;5161969;27;20295;-68
2022/06/17 06:06:14;;;;;;;5.68;5.18;;;18.70;90.70;;;;;;5162244;27;20211;-68
2022/06/17 06:08:41;;;;;;;6.10;4.90;;;18.80;91.00;;;;;;5162108;27;20676;-68
2022/06/17 06:11:08;;;;;;;4.97;4.57;;;18.80;90.00;;;;;;5161930;27;20227;-68
2022/06/17 06:13:36;;;;;;;4.60;4.20;;;18.90;90.30;;;;;;5161769;27;20653;-68
2022/06/17 06:16:03;;;;;;;6.15;5.10;;;18.90;90.30;;;;;;5162166;27;20561;-67
2022/06/17 06:18:33;;;;;;;7.57;5.05;;;18.90;88.80;;;;;;5161951;27;20295;-67
2022/06/17 06:21:04;;;;;;;5.22;4.82;;;19.00;88.90;;;;;;5161928;27;20637;-67
2022/06/17 06:23:33;;;;;;;4.90;4.50;;;19.00;87.90;;;;;;5161912;27;20275;-67
2022/06/17 06:26:00;;;;;;;5.13;4.72;;;19.10;88.50;;;;;;5162052;27;20206;-67
2022/06/17 06:28:28;;;;;;;5.10;4.70;;;19.10;87.60;;;;;;5162041;27;20203;-67
2022/06/17 06:30:58;;;;;;;5.03;4.60;;;19.20;87.80;;;;;;5161669;27;20784;-67
2022/06/17 06:33:25;;;;;;;4.78;4.45;;;19.30;89.00;;;;;;5161518;27;20529;-67
2022/06/17 06:35:52;;;;;;;4.55;4.15;;;19.30;87.60;;;;;;5161826;27;20292;-67
2022/06/17 06:38:20;;;;;;;4.30;3.90;;;19.30;86.70;;;;;;5161714;27;20685;-67
2022/06/17 06:40:48;;;;;;;5.85;4.72;;;19.40;88.10;;;;;;5161477;27;20721;-67
2022/06/17 06:43:18;;;;;;;4.90;4.50;;;19.50;87.20;;;;;;5161738;27;20210;-68
2022/06/17 06:45:47;;;;;;;6.90;4.30;;;19.60;83.90;;;;;;5161835;27;20522;-67
2022/06/17 06:48:17;;;;;;;4.77;3.80;;;19.80;85.50;;;;;;5161718;27;20527;-67
2022/06/17 06:50:44;;;;;;;4.60;4.20;;;19.90;86.20;;;;;;5161625;27;20884;-67
2022/06/17 06:53:11;;;;;;;4.50;4.20;;;20.20;84.00;;;;;;5161399;27;20544;-67
2022/06/17 06:55:39;;;;;;;5.07;4.70;;;20.20;82.50;;;;;;5161710;27;20538;-67
2022/06/17 06:58:12;;;;;;;4.40;4.10;;;20.20;81.70;;;;;;5161732;27;20526;-67
2022/06/17 07:00:41;;;;;;;5.10;4.70;;;20.50;83.80;;;;;;5161449;27;21067;-68
2022/06/17 07:03:09;;;;;;;5.33;4.70;;;20.90;80.90;;;;;;5161158;27;20930;-67
2022/06/17 07:05:38;;;;;;;4.60;4.30;;;21.00;80.30;;;;;;5161681;27;20938;-67
2022/06/17 07:08:05;;;;;;;5.07;4.67;;;21.00;79.90;;;;;;5161440;27;20437;-68
2022/06/17 07:10:35;;;;;;;5.17;4.60;;;21.20;82.10;;;;;;5161524;27;20954;-68
2022/06/17 07:13:03;;;;;;;5.20;4.80;;;21.20;79.30;;;;;;5158547;27;20519;-67
2022/06/17 07:15:32;;;;;;;4.77;4.40;;;21.40;80.70;;;;;;5158295;27;20443;-67
2022/06/17 07:18:02;;;;;;;5.70;5.20;;;21.30;80.00;;;;;;5158166;27;20564;-67
2022/06/17 07:20:36;;;;;;;7.00;5.33;;;21.30;79.40;;;;;;5158002;27;20890;-67
2022/06/17 07:23:03;;;;;;;5.60;5.10;;;21.30;79.20;;;;;;5158111;27;20457;-67
2022/06/17 07:25:30;;;;;;;5.70;5.20;;;21.50;79.70;;;;;;5158076;27;20860;-68
2022/06/17 07:27:57;;;;;;;6.23;5.63;;;21.70;79.30;;;;;;5157993;27;20447;-67
2022/06/17 07:30:24;;;;;;;5.93;5.40;;;21.70;79.20;;;;;;5157883;27;20461;-67
2022/06/17 07:32:52;;;;;;;6.33;5.57;;;21.70;79.30;;;;;;5157799;27;20523;-67
2022/06/17 07:35:19;;;;;;;7.00;5.30;;;21.70;79.70;;;;;;5157769;27;20452;-68
2022/06/17 07:40:32;;;;;;;6.07;5.47;;;21.40;80.00;;;;;;5157692;27;20480;-67
2022/06/17 07:43:00;;;;;;;5.70;5.20;;;21.50;80.30;;;;;;5157609;27;20546;-67
2022/06/17 07:45:28;;;;;;;6.10;5.60;;;21.70;81.30;;;;;;5157751;27;20537;-68
2022/06/17 07:47:58;;;;;;;7.20;5.40;;;21.80;80.10;;;;;;5157664;27;20461;-68
2022/06/17 07:50:28;;;;;;;5.80;5.30;;;22.20;81.40;;;;;;5157516;27;20458;-68
2022/06/17 07:52:55;;;;;;;6.77;6.07;;;22.90;80.40;;;;;;5157353;27;20449;-68
2022/06/17 07:55:22;;;;;;;6.43;5.80;;;23.40;77.70;;;;;;5157486;27;20530;-67
2022/06/17 07:57:50;;;;;;;5.93;5.53;;;23.90;74.10;;;;;;5157471;27;20875;-68
2022/06/17 08:00:22;;;;;;;6.23;5.77;;;24.10;71.30;;;;;;5157557;27;20530;-68
2022/06/17 08:02:49;;;;;;;9.00;5.80;;;24.30;70.60;;;;;;5157187;27;20856;-68
2022/06/17 08:05:18;;;;;;;5.97;5.53;;;24.80;69.10;;;;;;5157201;27;21006;-68
2022/06/17 08:07:45;;;;;;;6.13;5.63;;;25.10;68.60;;;;;;5157298;27;20529;-68
2022/06/17 08:10:16;;;;;;;8.30;6.20;;;25.00;67.70;;;;;;5157192;27;20435;-68
2022/06/17 08:12:43;;;;;;;6.77;6.17;;;24.70;67.80;;;;;;5156859;27;20440;-68
2022/06/17 08:15:12;;;;;;;8.60;6.00;;;24.70;68.80;;;;;;5157113;27;20486;-68
2022/06/17 08:17:39;;;;;;;7.03;6.47;;;24.60;68.70;;;;;;5157054;27;20445;-68
2022/06/17 08:20:09;;;;;;;6.97;6.17;;;24.50;68.30;;;;;;5156841;27;20479;-68
2022/06/17 08:22:38;;;;;;;7.70;6.10;;;24.40;69.40;;;;;;5156576;27;20517;-68
2022/06/17 08:25:06;;;;;;;6.80;6.30;;;24.30;69.60;;;;;;5155755;27;20530;-68
2022/06/17 08:27:36;;;;;;;7.70;7.10;;;24.40;72.00;;;;;;5156704;27;20440;-68
2022/06/17 08:30:03;;;;;;;6.73;6.23;;;24.70;72.40;;;;;;5156816;27;20485;-68
2022/06/17 08:32:48;;;;;;;8.00;5.97;;;25.00;68.30;;;;;;5156689;27;20535;-68
2022/06/17 08:35:17;;;;;;;6.73;6.13;;;25.30;67.80;;;;;;5156778;27;20442;-68
2022/06/17 08:37:47;;;;;;;7.03;6.43;;;25.40;66.00;;;;;;5156720;27;20524;-68
2022/06/17 08:40:32;;;;;;;7.10;6.40;;;25.60;65.90;;;;;;5156527;27;20476;-68
2022/06/17 08:43:09;;;;;;;6.00;5.50;;;26.00;64.70;;;;;;5156615;27;20516;-68
2022/06/17 08:45:44;;;;;;;6.10;5.60;;;26.20;63.10;;;;;;5156725;27;20517;-68
2022/06/17 08:48:24;;;;;;;7.10;6.10;;;26.60;64.30;;;;;;5156870;27;20476;-68
2022/06/17 08:51:01;;;;;;;5.70;5.17;;;26.70;60.40;;;;;;5154552;27;20544;-68
2022/06/17 08:54:06;;;;;;;5.23;4.83;;;26.90;60.30;;;;;;5133130;27;20477;-69
2022/06/17 08:56:40;;;;;;;5.40;5.00;;;27.20;56.50;;;;;;5134469;27;20439;-69
2022/06/17 08:59:25;;;;;;;6.83;4.57;;;27.70;56.30;;;;;;5134164;27;20517;-69
2022/06/17 09:02:02;;;;;;;4.03;3.73;;;29.20;55.00;;;;;;5134021;27;20467;-69
2022/06/17 09:04:41;;;;;;;4.60;4.30;;;30.80;51.20;;;;;;5133596;27;20529;-69
2022/06/17 09:07:19;;;;;;;4.63;4.33;;;32.00;49.90;;;;;;5133972;27;20533;-68
2022/06/17 09:10:08;;;;;;;4.63;4.37;;;32.70;43.60;;;;;;5134313;27;20536;-69
2022/06/17 09:12:50;;;;;;;5.60;5.13;;;33.10;42.40;;;;;;5133811;27;20880;-69
2022/06/17 09:15:25;;;;;;;6.10;4.00;;;33.70;41.70;;;;;;5134041;27;20537;-69
2022/06/17 09:17:59;;;;;;;4.60;4.27;;;33.70;39.60;;;;;;5133926;27;20868;-68
2022/06/17 09:20:34;;;;;;;4.97;4.40;;;33.80;39.60;;;;;;5133872;27;20572;-69
2022/06/17 09:23:03;;;;;;;4.43;4.13;;;33.80;38.50;;;;;;5133802;27;20444;-69
2022/06/17 09:25:39;;;;;;;4.27;3.97;;;33.30;38.10;;;;;;5133652;27;20468;-69
2022/06/17 09:28:10;;;;;;;4.70;4.30;;;33.60;38.30;;;;;;5133958;27;20442;-68
2022/06/17 09:30:43;;;;;;;4.50;4.20;;;33.50;38.50;;;;;;5133759;27;20511;-69
2022/06/17 09:33:15;;;;;;;4.30;4.00;;;33.20;38.20;;;;;;5133550;27;20545;-69
2022/06/17 09:35:48;;;;;;;3.93;3.73;;;33.70;38.00;;;;;;5133384;27;20529;-68
2022/06/17 09:38:19;;;;;;;4.30;4.10;;;33.90;37.50;;;;;;5133837;27;20521;-69
2022/06/17 09:40:54;;;;;;;4.00;3.70;;;33.90;36.80;;;;;;5133641;27;20983;-68
2022/06/17 09:43:27;;;;;;;4.33;3.97;;;34.90;37.00;;;;;;5133969;27;20529;-68
2022/06/17 09:46:01;;;;;;;4.00;3.80;;;35.60;34.80;;;;;;5133248;27;20442;-68
2022/06/17 09:48:33;;;;;;;4.00;3.70;;;35.50;34.80;;;;;;5133249;27;20996;-69
2022/06/17 09:51:07;;;;;;;4.20;3.90;;;36.20;35.70;;;;;;5133425;27;20459;-69
2022/06/17 09:53:39;;;;;;;3.90;3.70;;;37.40;34.80;;;;;;5133255;27;20835;-68
2022/06/17 09:56:12;;;;;;;4.00;3.80;;;37.70;32.10;;;;;;5132846;27;20533;-68
2022/06/17 09:58:45;;;;;;;3.63;3.43;;;37.30;31.00;;;;;;5133573;27;20529;-69
2022/06/17 10:01:13;;;;;;;4.10;3.70;;;36.50;31.30;;;;;;5133317;27;20916;-69
2022/06/17 10:03:40;;;;;;;4.03;3.83;;;36.10;32.10;;;;;;5133161;27;20868;-69
2022/06/17 10:06:21;;;;;;;3.50;3.20;;;36.30;32.50;;;;;;5133361;27;20438;-69
2022/06/17 10:08:59;;;;;;;4.10;3.90;;;36.90;31.80;;;;;;5133233;27;20854;-69
2022/06/17 10:11:33;;;;;;;3.93;3.63;;;37.00;31.00;;;;;;5133449;27;20561;-69
2022/06/17 10:14:16;;;;;;;3.20;3.10;;;37.10;30.90;;;;;;5133043;27;20528;-69
2022/06/17 10:19:51;;;;;;;3.90;3.70;;;37.80;31.10;;;;;;5133286;28;20782;-69
2022/06/17 10:22:34;;;;;;;4.13;3.93;;;37.90;30.80;;;;;;5133108;27;20454;-69
2022/06/17 10:25:18;;;;;;;4.23;4.03;;;37.30;31.60;;;;;;5132871;27;20524;-69
2022/06/17 10:27:59;;;;;;;4.57;4.23;;;36.00;32.70;;;;;;5133382;27;20428;-69
2022/06/17 10:30:38;;;;;;;4.03;3.73;;;35.00;34.00;;;;;;5133163;27;20464;-68
2022/06/17 10:33:08;;;;;;;4.63;4.17;;;33.50;36.30;;;;;;5133078;27;20541;-69
2022/06/17 10:35:35;;;;;;;4.27;3.97;;;32.70;37.60;;;;;;5132723;27;20537;-68
2022/06/17 10:38:06;;;;;;;4.43;4.13;;;32.00;37.40;;;;;;5132832;27;20472;-68
2022/06/17 10:40:37;;;;;;;4.87;4.47;;;31.40;39.20;;;;;;5133147;27;20905;-68
2022/06/17 10:43:10;;;;;;;3.93;3.70;;;31.20;39.00;;;;;;5132875;27;20542;-68
2022/06/17 10:45:37;;;;;;;4.43;4.13;;;31.00;39.70;;;;;;5132844;27;20534;-67
2022/06/17 10:48:11;;;;;;;4.93;4.53;;;30.60;39.70;;;;;;5134433;27;20548;-68
2022/06/17 10:50:38;;;;;;;4.80;4.40;;;30.00;40.90;;;;;;5137106;27;20879;-67
2022/06/17 10:53:14;;;;;;;4.67;4.27;;;29.80;41.70;;;;;;5136493;27;21043;-68
2022/06/17 10:55:44;;;;;;;4.23;3.93;;;29.80;42.30;;;;;;5136534;27;20998;-68
2022/06/17 10:58:17;;;;;;;4.60;4.30;;;29.80;42.50;;;;;;5136599;27;20533;-69
2022/06/17 11:00:55;;;;;;;3.83;3.63;;;29.90;42.30;;;;;;5136475;27;20513;-68
2022/06/17 11:03:28;;;;;;;4.23;3.93;;;29.60;42.60;;;;;;5136657;27;20473;-68
2022/06/17 11:06:13;;;;;;;4.10;3.80;;;29.50;43.10;;;;;;5136375;27;20991;-69
2022/06/17 11:08:52;;;;;;;4.13;3.93;;;29.50;41.20;;;;;;5136510;27;20556;-69
2022/06/17 11:14:20;;;;;;;3.90;3.70;;;29.50;41.00;;;;;;5136353;27;20196;-68
2022/06/17 11:16:47;;;;;;;3.87;3.67;;;29.30;40.30;;;;;;5136807;27;20849;-68
2022/06/17 11:19:16;;;;;;;3.30;3.10;;;29.00;41.80;;;;;;5136453;27;20541;-69
2022/06/17 11:21:48;;;;;;;3.67;3.40;;;29.10;40.50;;;;;;5135999;27;20485;-69
2022/06/17 11:24:22;;;;;;;3.77;3.57;;;29.10;40.30;;;;;;5136544;27;20489;-69
2022/06/17 11:27:02;;;;;;;3.70;3.50;;;29.10;40.70;;;;;;5136371;27;20693;-69
2022/06/17 11:29:39;;;;;;;3.40;3.10;;;29.00;40.20;;;;;;5136493;27;20534;-69
2022/06/17 11:32:24;;;;;;;3.63;3.27;;;29.10;40.30;;;;;;5136106;27;20495;-69
2022/06/17 11:34:54;;;;;;;3.47;3.27;;;29.20;40.00;;;;;;5135974;27;20540;-69
2022/06/17 11:37:24;;;;;;;3.77;3.43;;;29.40;40.60;;;;;;5136230;27;20523;-68
2022/06/17 11:40:09;;;;;;;3.77;3.57;;;29.60;39.70;;;;;;5136121;27;20434;-70
2022/06/17 11:42:43;;;;;;;3.93;3.73;;;29.80;39.70;;;;;;5135690;27;20521;-69
2022/06/17 11:45:16;;;;;;;3.13;2.93;;;29.80;39.00;;;;;;5135982;27;20527;-68
2022/06/17 11:47:47;;;;;;;3.53;3.27;;;29.80;37.80;;;;;;5135675;27;20471;-68
2022/06/17 11:50:18;;;;;;;3.33;3.23;;;29.60;38.10;;;;;;5135261;27;20983;-68
2022/06/17 11:52:45;;;;;;;3.50;3.20;;;29.50;38.50;;;;;;5135161;27;20462;-68
2022/06/17 11:55:13;;;;;;;3.80;3.60;;;29.50;39.50;;;;;;5135384;27;20465;-68
2022/06/17 11:57:42;;;;;;;3.47;3.27;;;29.70;39.80;;;;;;5135531;27;20548;-69
2022/06/17 12:00:26;;;;;;;3.60;3.30;;;29.60;39.60;;;;;;5134893;27;20540;-67
2022/06/17 12:02:55;;;;;;;3.77;3.57;;;29.40;39.70;;;;;;5135720;27;20478;-68
2022/06/17 12:05:24;;;;;;;3.27;3.13;;;29.50;40.60;;;;;;5135206;27;20531;-68
2022/06/17 12:07:55;;;;;;;3.20;3.03;;;29.60;39.80;;;;;;5134926;27;20493;-68
2022/06/17 12:10:31;;;;;;;3.80;3.10;;;29.70;38.80;;;;;;5135261;27;20446;-69
2022/06/17 12:13:04;;;;;;;3.57;3.10;;;29.70;38.60;;;;;;5135197;27;20540;-68
2022/06/17 12:15:38;;;;;;;3.43;3.23;;;29.70;39.30;;;;;;5134950;27;20457;-69
2022/06/17 12:18:07;;;;;;;3.30;3.10;;;29.80;38.50;;;;;;5135388;27;20441;-68
2022/06/17 12:20:45;;;;;;;3.93;3.63;;;29.90;39.00;;;;;;5134739;27;20557;-68
2022/06/17 12:23:18;;;;;;;3.93;3.20;;;29.90;38.90;;;;;;5134854;27;20446;-68
2022/06/17 12:25:51;;;;;;;3.17;2.90;;;29.60;38.50;;;;;;5134238;27;20533;-69
2022/06/17 12:28:26;;;;;;;2.83;2.63;;;29.70;39.30;;;;;;5134547;27;20521;-68
2022/06/17 12:31:02;;;;;;;3.07;2.87;;;29.60;38.20;;;;;;5134950;27;20537;-68
2022/06/17 12:33:35;;;;;;;2.97;2.70;;;29.20;39.10;;;;;;5134756;27;20433;-68
2022/06/17 12:36:06;;;;;;;3.00;2.73;;;29.00;39.10;;;;;;5134518;27;20429;-69
2022/06/17 12:38:41;;;;;;;2.87;2.73;;;29.10;39.50;;;;;;5134536;27;20477;-68
2022/06/17 12:41:14;;;;;;;4.10;3.80;;;29.30;38.10;;;;;;5135886;27;20564;-68
2022/06/17 12:43:47;;;;;;;3.13;2.93;;;29.60;38.90;;;;;;5135724;27;20525;-68
2022/06/17 12:46:23;;;;;;;2.70;2.60;;;29.60;38.80;;;;;;5135814;27;20859;-68
2022/06/17 12:48:57;;;;;;;2.43;2.33;;;29.50;38.20;;;;;;5135800;27;20850;-68
2022/06/17 12:54:25;;;;;;;4.63;2.40;;;29.40;37.70;;;;;;5135278;27;20455;-68
2022/06/17 12:57:01;;;;;;;2.83;2.63;;;29.30;38.50;;;;;;5135654;27;20865;-68
2022/06/17 12:59:44;;;;;;;3.30;3.10;;;29.50;38.50;;;;;;5135478;27;20923;-69
2022/06/17 13:02:16;;;;;;;3.10;2.90;;;29.50;37.30;;;;;;5134949;27;20565;-68
2022/06/17 13:05:09;;;;;;;2.63;2.43;;;29.30;37.70;;;;;;5135458;27;20442;-68
2022/06/17 13:07:50;;;;;;;2.47;2.37;;;29.40;38.00;;;;;;5132390;27;20565;-68
2022/06/17 13:13:11;;;;;;;2.73;2.63;;;29.50;37.40;;;;;;5133043;27;20920;-68
2022/06/17 13:15:45;;;;;;;2.30;2.20;;;29.50;36.80;;;;;;5135303;27;20438;-68
2022/06/17 13:18:21;;;;;;;2.70;2.50;;;29.70;35.90;;;;;;5135081;27;20965;-68
2022/06/17 13:20:54;;;;;;;2.40;2.30;;;29.80;36.50;;;;;;5134797;27;21038;-68
2022/06/17 13:23:27;;;;;;;2.97;2.77;;;29.70;36.50;;;;;;5135161;27;20911;-68
2022/06/17 13:26:00;;;;;;;2.43;2.30;;;29.70;36.70;;;;;;5135221;27;20525;-68